Terminal Aerodrome Forecast
Issued by NWS

Home | Current Version | Previous Version | Text Only | Print | Product List | Glossary On
Versions: 1 2 3 4 5 6 7 8 9 10 11 12
000
FTUS46 KSEW 290500
TAFCLM
TAF
KCLM 290520Z 2906/3006 00000KT P6SM OVC080
     FM291000 VRB03KT P6SM BKN050 OVC080
      TEMPO 3002/3006 -RA OVC050=

USA.gov is the U.S. government's official web portal to all federal, state and local government web resources and services.